sensor_id;sensor_type;location;lat;lon;timestamp;P1;durP1;ratioP1;P2;durP2;ratioP2
26484;SDS011;18083;50.560;7.262;2023-05-10T00:00:17;2.12;;;0.70;;
26484;SDS011;18083;50.560;7.262;2023-05-10T00:02:44;0.70;;;0.42;;
26484;SDS011;18083;50.560;7.262;2023-05-10T00:05:12;0.42;;;0.40;;
26484;SDS011;18083;50.560;7.262;2023-05-10T00:07:39;0.88;;;0.65;;
26484;SDS011;18083;50.560;7.262;2023-05-10T00:10:07;0.90;;;0.50;;
26484;SDS011;18083;50.560;7.262;2023-05-10T00:12:34;1.27;;;0.68;;
26484;SDS011;18083;50.560;7.262;2023-05-10T00:15:02;0.70;;;0.70;;
26484;SDS011;18083;50.560;7.262;2023-05-10T00:17:29;2.70;;;0.93;;
26484;SDS011;18083;50.560;7.262;2023-05-10T00:19:56;1.22;;;0.80;;
26484;SDS011;18083;50.560;7.262;2023-05-10T00:22:24;1.07;;;0.60;;
26484;SDS011;18083;50.560;7.262;2023-05-10T00:24:51;7.25;;;2.15;;
26484;SDS011;18083;50.560;7.262;2023-05-10T00:27:19;0.50;;;0.50;;
26484;SDS011;18083;50.560;7.262;2023-05-10T00:29:46;1.32;;;0.78;;
26484;SDS011;18083;50.560;7.262;2023-05-10T00:32:13;0.75;;;0.50;;
26484;SDS011;18083;50.560;7.262;2023-05-10T00:34:41;0.50;;;0.40;;
26484;SDS011;18083;50.560;7.262;2023-05-10T00:37:08;1.17;;;0.60;;
26484;SDS011;18083;50.560;7.262;2023-05-10T00:39:35;3.50;;;0.60;;
26484;SDS011;18083;50.560;7.262;2023-05-10T00:42:02;0.72;;;0.40;;
26484;SDS011;18083;50.560;7.262;2023-05-10T00:44:30;0.70;;;0.60;;
26484;SDS011;18083;50.560;7.262;2023-05-10T00:46:58;1.40;;;0.55;;
26484;SDS011;18083;50.560;7.262;2023-05-10T00:49:26;0.53;;;0.53;;
26484;SDS011;18083;50.560;7.262;2023-05-10T00:51:53;0.72;;;0.50;;
26484;SDS011;18083;50.560;7.262;2023-05-10T00:54:21;0.90;;;0.45;;
26484;SDS011;18083;50.560;7.262;2023-05-10T00:56:48;0.60;;;0.50;;
26484;SDS011;18083;50.560;7.262;2023-05-10T00:59:16;0.57;;;0.50;;
26484;SDS011;18083;50.560;7.262;2023-05-10T01:01:44;0.60;;;0.60;;
26484;SDS011;18083;50.560;7.262;2023-05-10T01:04:12;0.65;;;0.57;;
26484;SDS011;18083;50.560;7.262;2023-05-10T01:06:40;0.70;;;0.70;;
26484;SDS011;18083;50.560;7.262;2023-05-10T01:09:08;2.42;;;0.75;;
26484;SDS011;18083;50.560;7.262;2023-05-10T01:11:36;2.17;;;1.62;;
26484;SDS011;18083;50.560;7.262;2023-05-10T01:14:04;2.77;;;0.85;;
26484;SDS011;18083;50.560;7.262;2023-05-10T01:16:32;0.60;;;0.60;;
26484;SDS011;18083;50.560;7.262;2023-05-10T01:19:00;1.27;;;0.55;;
26484;SDS011;18083;50.560;7.262;2023-05-10T01:21:31;1.27;;;0.70;;
26484;SDS011;18083;50.560;7.262;2023-05-10T01:26:36;0.65;;;0.65;;
26484;SDS011;18083;50.560;7.262;2023-05-10T01:34:25;4.60;;;1.75;;
26484;SDS011;18083;50.560;7.262;2023-05-10T01:36:55;2.77;;;1.00;;
26484;SDS011;18083;50.560;7.262;2023-05-10T01:42:02;1.05;;;0.95;;
26484;SDS011;18083;50.560;7.262;2023-05-10T01:44:37;1.15;;;0.60;;
26484;SDS011;18083;50.560;7.262;2023-05-10T01:47:06;3.35;;;0.70;;
26484;SDS011;18083;50.560;7.262;2023-05-10T01:49:39;6.12;;;1.10;;
26484;SDS011;18083;50.560;7.262;2023-05-10T01:52:04;1.37;;;0.88;;
26484;SDS011;18083;50.560;7.262;2023-05-10T01:54:31;1.15;;;0.85;;
26484;SDS011;18083;50.560;7.262;2023-05-10T01:57:01;0.68;;;0.60;;
26484;SDS011;18083;50.560;7.262;2023-05-10T01:59:30;2.98;;;1.15;;
26484;SDS011;18083;50.560;7.262;2023-05-10T02:01:58;3.02;;;0.93;;
26484;SDS011;18083;50.560;7.262;2023-05-10T02:04:26;2.45;;;0.80;;
26484;SDS011;18083;50.560;7.262;2023-05-10T02:06:54;3.08;;;0.90;;
26484;SDS011;18083;50.560;7.262;2023-05-10T02:09:22;0.60;;;0.60;;
26484;SDS011;18083;50.560;7.262;2023-05-10T02:11:50;4.92;;;0.65;;
26484;SDS011;18083;50.560;7.262;2023-05-10T02:14:17;0.80;;;0.80;;
26484;SDS011;18083;50.560;7.262;2023-05-10T02:16:45;1.20;;;0.80;;
26484;SDS011;18083;50.560;7.262;2023-05-10T02:19:13;1.10;;;0.98;;
26484;SDS011;18083;50.560;7.262;2023-05-10T02:21:41;0.98;;;0.90;;
26484;SDS011;18083;50.560;7.262;2023-05-10T02:24:08;1.25;;;0.80;;
26484;SDS011;18083;50.560;7.262;2023-05-10T02:26:37;0.93;;;0.70;;
26484;SDS011;18083;50.560;7.262;2023-05-10T02:29:05;0.80;;;0.78;;
26484;SDS011;18083;50.560;7.262;2023-05-10T02:31:33;3.30;;;0.70;;
26484;SDS011;18083;50.560;7.262;2023-05-10T02:34:01;0.55;;;0.55;;
26484;SDS011;18083;50.560;7.262;2023-05-10T02:36:29;0.85;;;0.62;;
26484;SDS011;18083;50.560;7.262;2023-05-10T02:38:58;2.37;;;1.10;;
26484;SDS011;18083;50.560;7.262;2023-05-10T02:41:26;1.20;;;0.75;;
26484;SDS011;18083;50.560;7.262;2023-05-10T02:43:56;0.98;;;0.85;;
26484;SDS011;18083;50.560;7.262;2023-05-10T02:46:23;0.88;;;0.80;;
26484;SDS011;18083;50.560;7.262;2023-05-10T02:48:51;1.15;;;1.05;;
26484;SDS011;18083;50.560;7.262;2023-05-10T02:51:18;1.00;;;0.53;;
26484;SDS011;18083;50.560;7.262;2023-05-10T02:53:46;0.72;;;0.60;;
26484;SDS011;18083;50.560;7.262;2023-05-10T02:56:15;1.25;;;0.62;;
26484;SDS011;18083;50.560;7.262;2023-05-10T02:58:43;0.90;;;0.88;;
26484;SDS011;18083;50.560;7.262;2023-05-10T03:01:10;0.80;;;0.80;;
26484;SDS011;18083;50.560;7.262;2023-05-10T03:03:38;0.70;;;0.60;;
26484;SDS011;18083;50.560;7.262;2023-05-10T03:06:05;1.00;;;0.80;;
26484;SDS011;18083;50.560;7.262;2023-05-10T03:08:32;2.22;;;0.90;;
26484;SDS011;18083;50.560;7.262;2023-05-10T03:13:34;1.20;;;0.85;;
26484;SDS011;18083;50.560;7.262;2023-05-10T03:16:06;0.80;;;0.80;;
26484;SDS011;18083;50.560;7.262;2023-05-10T03:18:37;1.22;;;0.85;;
26484;SDS011;18083;50.560;7.262;2023-05-10T03:21:03;2.25;;;0.93;;
26484;SDS011;18083;50.560;7.262;2023-05-10T03:23:34;1.25;;;1.17;;
26484;SDS011;18083;50.560;7.262;2023-05-10T03:26:01;0.88;;;0.85;;
26484;SDS011;18083;50.560;7.262;2023-05-10T03:28:29;1.67;;;1.10;;
26484;SDS011;18083;50.560;7.262;2023-05-10T03:30:57;1.10;;;1.00;;
26484;SDS011;18083;50.560;7.262;2023-05-10T03:33:25;2.62;;;1.02;;
26484;SDS011;18083;50.560;7.262;2023-05-10T03:35:53;2.47;;;1.10;;
26484;SDS011;18083;50.560;7.262;2023-05-10T03:38:20;1.22;;;1.12;;
26484;SDS011;18083;50.560;7.262;2023-05-10T03:40:48;1.25;;;0.95;;
26484;SDS011;18083;50.560;7.262;2023-05-10T03:43:15;1.15;;;1.05;;
26484;SDS011;18083;50.560;7.262;2023-05-10T03:45:42;1.75;;;1.65;;
26484;SDS011;18083;50.560;7.262;2023-05-10T03:48:10;1.35;;;1.22;;
26484;SDS011;18083;50.560;7.262;2023-05-10T03:50:37;1.02;;;0.88;;
26484;SDS011;18083;50.560;7.262;2023-05-10T03:53:04;4.42;;;1.32;;
26484;SDS011;18083;50.560;7.262;2023-05-10T03:55:31;1.42;;;1.20;;
26484;SDS011;18083;50.560;7.262;2023-05-10T03:58:00;1.52;;;1.42;;
26484;SDS011;18083;50.560;7.262;2023-05-10T04:00:28;1.30;;;1.10;;
26484;SDS011;18083;50.560;7.262;2023-05-10T04:02:56;1.87;;;1.65;;
26484;SDS011;18083;50.560;7.262;2023-05-10T04:05:23;1.30;;;1.20;;
26484;SDS011;18083;50.560;7.262;2023-05-10T04:07:50;1.50;;;1.40;;
26484;SDS011;18083;50.560;7.262;2023-05-10T04:10:18;2.00;;;1.55;;
26484;SDS011;18083;50.560;7.262;2023-05-10T04:12:45;5.10;;;1.72;;
26484;SDS011;18083;50.560;7.262;2023-05-10T04:15:13;2.58;;;2.05;;
26484;SDS011;18083;50.560;7.262;2023-05-10T04:17:40;2.30;;;1.77;;
26484;SDS011;18083;50.560;7.262;2023-05-10T04:20:07;2.33;;;2.08;;
26484;SDS011;18083;50.560;7.262;2023-05-10T04:22:35;2.87;;;1.80;;
26484;SDS011;18083;50.560;7.262;2023-05-10T04:25:02;3.55;;;1.95;;
26484;SDS011;18083;50.560;7.262;2023-05-10T04:27:30;2.00;;;1.57;;
26484;SDS011;18083;50.560;7.262;2023-05-10T04:29:58;2.20;;;1.80;;
26484;SDS011;18083;50.560;7.262;2023-05-10T04:32:25;3.33;;;2.50;;
26484;SDS011;18083;50.560;7.262;2023-05-10T04:34:52;3.12;;;2.40;;
26484;SDS011;18083;50.560;7.262;2023-05-10T04:37:19;5.40;;;2.58;;
26484;SDS011;18083;50.560;7.262;2023-05-10T04:39:48;4.45;;;3.12;;
26484;SDS011;18083;50.560;7.262;2023-05-10T04:42:16;4.25;;;2.92;;
26484;SDS011;18083;50.560;7.262;2023-05-10T04:44:43;4.80;;;3.30;;
26484;SDS011;18083;50.560;7.262;2023-05-10T04:47:11;3.70;;;3.02;;
26484;SDS011;18083;50.560;7.262;2023-05-10T04:49:39;4.85;;;3.20;;
26484;SDS011;18083;50.560;7.262;2023-05-10T04:52:06;5.08;;;3.55;;
26484;SDS011;18083;50.560;7.262;2023-05-10T04:54:33;4.72;;;3.00;;
26484;SDS011;18083;50.560;7.262;2023-05-10T04:57:01;5.33;;;3.27;;
26484;SDS011;18083;50.560;7.262;2023-05-10T04:59:28;6.08;;;4.30;;
26484;SDS011;18083;50.560;7.262;2023-05-10T05:01:55;5.12;;;3.85;;
26484;SDS011;18083;50.560;7.262;2023-05-10T05:04:23;6.80;;;3.12;;
26484;SDS011;18083;50.560;7.262;2023-05-10T05:06:50;5.03;;;3.27;;
26484;SDS011;18083;50.560;7.262;2023-05-10T05:09:18;4.75;;;3.02;;
26484;SDS011;18083;50.560;7.262;2023-05-10T05:11:45;6.55;;;4.35;;
26484;SDS011;18083;50.560;7.262;2023-05-10T05:14:12;6.75;;;3.75;;
26484;SDS011;18083;50.560;7.262;2023-05-10T05:16:40;5.97;;;4.58;;
26484;SDS011;18083;50.560;7.262;2023-05-10T05:19:07;4.80;;;3.42;;
26484;SDS011;18083;50.560;7.262;2023-05-10T05:21:36;6.30;;;3.98;;
26484;SDS011;18083;50.560;7.262;2023-05-10T05:34:46;5.33;;;3.55;;
26484;SDS011;18083;50.560;7.262;2023-05-10T05:37:18;5.22;;;3.33;;
26484;SDS011;18083;50.560;7.262;2023-05-10T05:39:42;3.22;;;2.92;;
26484;SDS011;18083;50.560;7.262;2023-05-10T05:42:10;4.47;;;3.12;;
26484;SDS011;18083;50.560;7.262;2023-05-10T05:44:37;6.42;;;3.00;;
26484;SDS011;18083;50.560;7.262;2023-05-10T05:47:05;5.35;;;3.02;;
26484;SDS011;18083;50.560;7.262;2023-05-10T05:49:32;7.55;;;3.70;;
26484;SDS011;18083;50.560;7.262;2023-05-10T05:52:00;3.92;;;3.10;;
26484;SDS011;18083;50.560;7.262;2023-05-10T05:54:28;5.58;;;4.28;;
26484;SDS011;18083;50.560;7.262;2023-05-10T05:56:56;8.85;;;4.83;;
26484;SDS011;18083;50.560;7.262;2023-05-10T05:59:23;7.97;;;5.65;;
26484;SDS011;18083;50.560;7.262;2023-05-10T06:01:51;7.53;;;4.85;;
26484;SDS011;18083;50.560;7.262;2023-05-10T06:04:19;5.87;;;4.28;;
26484;SDS011;18083;50.560;7.262;2023-05-10T06:06:46;5.90;;;4.50;;
26484;SDS011;18083;50.560;7.262;2023-05-10T06:09:13;7.35;;;4.35;;
26484;SDS011;18083;50.560;7.262;2023-05-10T06:11:41;7.05;;;4.10;;
26484;SDS011;18083;50.560;7.262;2023-05-10T06:14:08;5.87;;;3.75;;
26484;SDS011;18083;50.560;7.262;2023-05-10T06:16:36;6.05;;;3.45;;
26484;SDS011;18083;50.560;7.262;2023-05-10T06:19:03;11.63;;;4.22;;
26484;SDS011;18083;50.560;7.262;2023-05-10T06:21:30;4.37;;;3.70;;
26484;SDS011;18083;50.560;7.262;2023-05-10T06:23:58;6.08;;;4.10;;
26484;SDS011;18083;50.560;7.262;2023-05-10T06:26:25;6.75;;;3.77;;
26484;SDS011;18083;50.560;7.262;2023-05-10T06:28:52;4.80;;;3.27;;
26484;SDS011;18083;50.560;7.262;2023-05-10T06:31:20;5.75;;;3.75;;
26484;SDS011;18083;50.560;7.262;2023-05-10T06:33:47;7.17;;;3.25;;
26484;SDS011;18083;50.560;7.262;2023-05-10T06:36:14;3.02;;;2.30;;
26484;SDS011;18083;50.560;7.262;2023-05-10T06:38:42;4.22;;;2.02;;
26484;SDS011;18083;50.560;7.262;2023-05-10T06:41:09;4.30;;;1.80;;
26484;SDS011;18083;50.560;7.262;2023-05-10T06:43:36;2.80;;;2.50;;
26484;SDS011;18083;50.560;7.262;2023-05-10T06:46:05;3.02;;;2.17;;
26484;SDS011;18083;50.560;7.262;2023-05-10T06:48:33;2.40;;;2.20;;
26484;SDS011;18083;50.560;7.262;2023-05-10T06:51:01;3.47;;;1.98;;
26484;SDS011;18083;50.560;7.262;2023-05-10T06:53:28;3.08;;;2.30;;
26484;SDS011;18083;50.560;7.262;2023-05-10T06:55:56;4.72;;;3.00;;
26484;SDS011;18083;50.560;7.262;2023-05-10T06:58:23;4.72;;;2.47;;
26484;SDS011;18083;50.560;7.262;2023-05-10T07:00:50;4.45;;;2.72;;
26484;SDS011;18083;50.560;7.262;2023-05-10T07:03:18;2.80;;;2.50;;
26484;SDS011;18083;50.560;7.262;2023-05-10T07:05:45;4.78;;;2.72;;
26484;SDS011;18083;50.560;7.262;2023-05-10T07:08:13;2.87;;;2.65;;
26484;SDS011;18083;50.560;7.262;2023-05-10T07:10:40;2.70;;;2.37;;
26484;SDS011;18083;50.560;7.262;2023-05-10T07:13:08;4.12;;;2.05;;
26484;SDS011;18083;50.560;7.262;2023-05-10T07:15:36;3.75;;;2.27;;
26484;SDS011;18083;50.560;7.262;2023-05-10T07:18:03;3.08;;;2.40;;
26484;SDS011;18083;50.560;7.262;2023-05-10T07:20:32;3.98;;;2.30;;
26484;SDS011;18083;50.560;7.262;2023-05-10T07:22:59;2.08;;;1.85;;
26484;SDS011;18083;50.560;7.262;2023-05-10T07:25:27;2.08;;;1.87;;
26484;SDS011;18083;50.560;7.262;2023-05-10T07:27:54;3.58;;;2.05;;
26484;SDS011;18083;50.560;7.262;2023-05-10T07:30:21;2.87;;;2.05;;
26484;SDS011;18083;50.560;7.262;2023-05-10T07:32:49;3.80;;;2.02;;
26484;SDS011;18083;50.560;7.262;2023-05-10T07:35:16;2.42;;;2.22;;
26484;SDS011;18083;50.560;7.262;2023-05-10T07:37:43;4.30;;;1.90;;
26484;SDS011;18083;50.560;7.262;2023-05-10T07:40:11;3.60;;;2.33;;
26484;SDS011;18083;50.560;7.262;2023-05-10T07:42:38;2.85;;;1.87;;
26484;SDS011;18083;50.560;7.262;2023-05-10T07:45:06;8.90;;;2.27;;
26484;SDS011;18083;50.560;7.262;2023-05-10T07:47:33;2.52;;;2.27;;
26484;SDS011;18083;50.560;7.262;2023-05-10T07:50:00;3.52;;;2.17;;
26484;SDS011;18083;50.560;7.262;2023-05-10T07:52:28;1.95;;;1.85;;
26484;SDS011;18083;50.560;7.262;2023-05-10T07:54:55;6.67;;;2.92;;
26484;SDS011;18083;50.560;7.262;2023-05-10T07:57:23;5.08;;;2.22;;
26484;SDS011;18083;50.560;7.262;2023-05-10T07:59:50;3.05;;;1.52;;
26484;SDS011;18083;50.560;7.262;2023-05-10T08:02:17;3.52;;;2.20;;
26484;SDS011;18083;50.560;7.262;2023-05-10T08:04:45;2.60;;;2.40;;
26484;SDS011;18083;50.560;7.262;2023-05-10T08:07:12;2.33;;;2.12;;
26484;SDS011;18083;50.560;7.262;2023-05-10T08:09:39;4.67;;;2.90;;
26484;SDS011;18083;50.560;7.262;2023-05-10T08:12:07;2.92;;;2.40;;
26484;SDS011;18083;50.560;7.262;2023-05-10T08:14:34;3.37;;;2.35;;
26484;SDS011;18083;50.560;7.262;2023-05-10T20:13:24;5.92;;;3.12;;
26484;SDS011;18083;50.560;7.262;2023-05-10T20:15:57;3.92;;;3.10;;
26484;SDS011;18083;50.560;7.262;2023-05-10T20:18:25;4.53;;;3.15;;
26484;SDS011;18083;50.560;7.262;2023-05-10T20:20:57;4.17;;;3.77;;
26484;SDS011;18083;50.560;7.262;2023-05-10T20:23:24;4.92;;;3.60;;
26484;SDS011;18083;50.560;7.262;2023-05-10T20:25:51;4.33;;;3.70;;
26484;SDS011;18083;50.560;7.262;2023-05-10T20:28:20;4.97;;;3.27;;
26484;SDS011;18083;50.560;7.262;2023-05-10T20:30:50;5.55;;;3.60;;
26484;SDS011;18083;50.560;7.262;2023-05-10T20:33:18;6.15;;;4.30;;
26484;SDS011;18083;50.560;7.262;2023-05-10T20:35:45;7.67;;;4.22;;
26484;SDS011;18083;50.560;7.262;2023-05-10T20:38:12;7.03;;;4.03;;
26484;SDS011;18083;50.560;7.262;2023-05-10T20:40:40;7.00;;;4.60;;
26484;SDS011;18083;50.560;7.262;2023-05-10T20:43:07;6.80;;;4.00;;
26484;SDS011;18083;50.560;7.262;2023-05-10T20:45:35;8.55;;;4.92;;
26484;SDS011;18083;50.560;7.262;2023-05-10T20:48:03;4.75;;;4.25;;
26484;SDS011;18083;50.560;7.262;2023-05-10T20:50:30;6.20;;;4.40;;
26484;SDS011;18083;50.560;7.262;2023-05-10T20:52:57;4.67;;;4.17;;
26484;SDS011;18083;50.560;7.262;2023-05-10T20:55:25;5.97;;;4.50;;
26484;SDS011;18083;50.560;7.262;2023-05-10T20:57:53;3.75;;;3.22;;
26484;SDS011;18083;50.560;7.262;2023-05-10T21:00:20;6.85;;;4.10;;
26484;SDS011;18083;50.560;7.262;2023-05-10T21:02:48;8.67;;;3.87;;
26484;SDS011;18083;50.560;7.262;2023-05-10T21:05:18;4.45;;;3.77;;
26484;SDS011;18083;50.560;7.262;2023-05-10T21:07:45;3.95;;;2.90;;
26484;SDS011;18083;50.560;7.262;2023-05-10T21:10:13;4.90;;;2.83;;
26484;SDS011;18083;50.560;7.262;2023-05-10T21:12:40;2.95;;;2.50;;
26484;SDS011;18083;50.560;7.262;2023-05-10T21:15:07;4.42;;;2.90;;
26484;SDS011;18083;50.560;7.262;2023-05-10T21:17:35;2.70;;;2.40;;
26484;SDS011;18083;50.560;7.262;2023-05-10T21:20:02;4.17;;;3.15;;
26484;SDS011;18083;50.560;7.262;2023-05-10T21:22:30;3.87;;;3.45;;
26484;SDS011;18083;50.560;7.262;2023-05-10T21:24:57;4.30;;;3.45;;
26484;SDS011;18083;50.560;7.262;2023-05-10T21:27:24;6.83;;;3.62;;
26484;SDS011;18083;50.560;7.262;2023-05-10T21:29:52;4.78;;;3.50;;
26484;SDS011;18083;50.560;7.262;2023-05-10T21:32:19;7.87;;;3.98;;
26484;SDS011;18083;50.560;7.262;2023-05-10T21:34:46;5.10;;;3.95;;
26484;SDS011;18083;50.560;7.262;2023-05-10T21:37:14;7.15;;;4.35;;
26484;SDS011;18083;50.560;7.262;2023-05-10T21:39:45;5.17;;;3.85;;
26484;SDS011;18083;50.560;7.262;2023-05-10T21:42:12;7.85;;;4.95;;
26484;SDS011;18083;50.560;7.262;2023-05-10T21:44:39;9.18;;;5.03;;
26484;SDS011;18083;50.560;7.262;2023-05-10T21:47:07;6.12;;;4.45;;
26484;SDS011;18083;50.560;7.262;2023-05-10T21:49:34;7.95;;;5.15;;
26484;SDS011;18083;50.560;7.262;2023-05-10T21:52:01;6.70;;;4.72;;
26484;SDS011;18083;50.560;7.262;2023-05-10T21:54:29;7.25;;;4.72;;
26484;SDS011;18083;50.560;7.262;2023-05-10T21:56:56;9.10;;;5.72;;
26484;SDS011;18083;50.560;7.262;2023-05-10T22:02:16;10.08;;;5.67;;
26484;SDS011;18083;50.560;7.262;2023-05-10T22:04:43;7.67;;;5.75;;
26484;SDS011;18083;50.560;7.262;2023-05-10T22:07:14;7.87;;;4.75;;
26484;SDS011;18083;50.560;7.262;2023-05-10T22:09:48;12.53;;;6.37;;
26484;SDS011;18083;50.560;7.262;2023-05-10T22:12:21;5.50;;;4.58;;
26484;SDS011;18083;50.560;7.262;2023-05-10T22:14:47;7.23;;;4.47;;
26484;SDS011;18083;50.560;7.262;2023-05-10T22:17:15;5.25;;;4.50;;
26484;SDS011;18083;50.560;7.262;2023-05-10T22:19:46;6.08;;;4.22;;
26484;SDS011;18083;50.560;7.262;2023-05-10T22:22:19;4.72;;;4.17;;
26484;SDS011;18083;50.560;7.262;2023-05-10T22:24:54;8.88;;;3.37;;
26484;SDS011;18083;50.560;7.262;2023-05-10T22:27:24;3.80;;;3.33;;
26484;SDS011;18083;50.560;7.262;2023-05-10T22:37:44;3.02;;;2.62;;
26484;SDS011;18083;50.560;7.262;2023-05-10T22:40:22;3.58;;;2.50;;
26484;SDS011;18083;50.560;7.262;2023-05-10T22:42:56;2.27;;;2.08;;
26484;SDS011;18083;50.560;7.262;2023-05-10T22:45:33;6.10;;;1.92;;
26484;SDS011;18083;50.560;7.262;2023-05-10T22:48:01;2.80;;;2.40;;
26484;SDS011;18083;50.560;7.262;2023-05-10T22:53:10;4.47;;;2.58;;
26484;SDS011;18083;50.560;7.262;2023-05-10T22:55:45;3.60;;;2.75;;
26484;SDS011;18083;50.560;7.262;2023-05-10T22:58:09;3.42;;;2.98;;
26484;SDS011;18083;50.560;7.262;2023-05-10T23:00:44;5.10;;;4.08;;
26484;SDS011;18083;50.560;7.262;2023-05-10T23:03:14;5.03;;;3.98;;
26484;SDS011;18083;50.560;7.262;2023-05-10T23:05:40;7.83;;;4.37;;
26484;SDS011;18083;50.560;7.262;2023-05-10T23:08:10;6.30;;;3.20;;
26484;SDS011;18083;50.560;7.262;2023-05-10T23:10:50;3.87;;;2.52;;
26484;SDS011;18083;50.560;7.262;2023-05-10T23:13:05;2.30;;;2.10;;
26484;SDS011;18083;50.560;7.262;2023-05-10T23:15:35;3.47;;;1.90;;
26484;SDS011;18083;50.560;7.262;2023-05-10T23:18:03;1.52;;;1.30;;
26484;SDS011;18083;50.560;7.262;2023-05-10T23:20:31;3.37;;;1.32;;
26484;SDS011;18083;50.560;7.262;2023-05-10T23:22:58;1.35;;;1.22;;
26484;SDS011;18083;50.560;7.262;2023-05-10T23:25:26;2.70;;;1.55;;
26484;SDS011;18083;50.560;7.262;2023-05-10T23:27:53;2.40;;;1.03;;
26484;SDS011;18083;50.560;7.262;2023-05-10T23:30:20;3.25;;;1.00;;
26484;SDS011;18083;50.560;7.262;2023-05-10T23:32:48;3.90;;;0.97;;
26484;SDS011;18083;50.560;7.262;2023-05-10T23:35:15;3.30;;;0.60;;
26484;SDS011;18083;50.560;7.262;2023-05-10T23:37:43;1.55;;;0.80;;
26484;SDS011;18083;50.560;7.262;2023-05-10T23:40:10;1.20;;;0.78;;
26484;SDS011;18083;50.560;7.262;2023-05-10T23:42:38;0.60;;;0.60;;
26484;SDS011;18083;50.560;7.262;2023-05-10T23:45:06;0.93;;;0.90;;
26484;SDS011;18083;50.560;7.262;2023-05-10T23:47:33;0.67;;;0.63;;
26484;SDS011;18083;50.560;7.262;2023-05-10T23:50:01;0.82;;;0.60;;
26484;SDS011;18083;50.560;7.262;2023-05-10T23:52:30;0.50;;;0.50;;
26484;SDS011;18083;50.560;7.262;2023-05-10T23:54:57;3.12;;;0.93;;
26484;SDS011;18083;50.560;7.262;2023-05-10T23:57:25;0.85;;;0.55;;
26484;SDS011;18083;50.560;7.262;2023-05-10T23:59:53;3.80;;;0.68;;
